Time;durP1;ratioP1;P1;durP2;ratioP2;P2;SDS_P1;SDS_P2;PMS_P1;PMS_P2;Temp;Humidity;BMP_temperature;BMP_pressure;BME280_temperature;BME280_humidity;BME280_pressure;Samples;Min_cycle;Max_cycle;Signal;HPM_P1;HPM_P2
2024/04/05 04:02:02;;;;;;;1.00;0.90;;;9.70;97.30;;;;;;5345096;23;20556;-62
2024/04/05 04:04:28;;;;;;;0.90;0.80;;;9.70;97.30;;;;;;4975208;28;20492;-61
2024/04/05 04:06:54;;;;;;;1.37;1.27;;;9.70;97.30;;;;;;4957922;28;20647;-61
2024/04/05 04:09:20;;;;;;;4.43;1.33;;;9.70;97.30;;;;;;4966187;28;20670;-61
2024/04/05 04:11:45;;;;;;;1.40;1.30;;;9.70;97.30;;;;;;4974091;28;20831;-61
2024/04/05 04:14:14;;;;;;;0.90;0.80;;;9.70;97.30;;;;;;4963650;28;20182;-61
2024/04/05 04:16:42;;;;;;;0.90;0.80;;;9.70;97.30;;;;;;4968937;28;20217;-62
2024/04/05 04:19:10;;;;;;;1.03;1.00;;;9.70;97.30;;;;;;4965001;28;20456;-62
2024/04/05 04:21:36;;;;;;;1.93;1.60;;;9.70;97.30;;;;;;4971438;28;20749;-61
2024/04/05 04:24:02;;;;;;;1.03;0.93;;;9.80;97.30;;;;;;4973521;28;20432;-61
2024/04/05 04:26:37;;;;;;;0.73;0.70;;;9.80;97.30;;;;;;4972843;28;20735;-62
2024/04/05 04:29:05;;;;;;;0.90;0.80;;;9.80;97.30;;;;;;4981440;28;20436;-62
2024/04/05 04:31:31;;;;;;;1.00;0.90;;;9.90;97.30;;;;;;4964903;28;20473;-61
2024/04/05 04:33:57;;;;;;;1.20;1.10;;;9.90;97.30;;;;;;4970626;28;20422;-61
2024/04/05 04:36:24;;;;;;;1.40;1.10;;;9.90;97.30;;;;;;4964520;28;20183;-62
2024/04/05 04:38:51;;;;;;;4.47;1.33;;;9.90;97.30;;;;;;4961039;28;20449;-62
2024/04/05 04:41:17;;;;;;;1.00;0.90;;;10.00;97.30;;;;;;4964166;28;20445;-63
2024/04/05 04:43:43;;;;;;;1.00;1.00;;;10.00;97.30;;;;;;4962642;28;20512;-62
2024/04/05 04:46:13;;;;;;;1.20;1.10;;;10.00;97.30;;;;;;4967423;28;20591;-61
2024/04/05 04:48:39;;;;;;;1.27;1.17;;;10.00;97.30;;;;;;4968158;28;20429;-62
2024/04/05 04:51:06;;;;;;;1.30;1.20;;;10.10;97.30;;;;;;4974805;28;20469;-62
2024/04/05 04:53:31;;;;;;;1.00;0.90;;;10.10;97.30;;;;;;4968684;28;20214;-62
2024/04/05 04:55:57;;;;;;;1.97;1.87;;;10.10;97.30;;;;;;4968319;28;20476;-62
2024/04/05 04:58:23;;;;;;;1.77;1.50;;;10.20;97.30;;;;;;4955669;28;20242;-62
2024/04/05 05:00:49;;;;;;;1.57;1.07;;;10.20;97.30;;;;;;4972570;28;20233;-61
2024/04/05 05:03:14;;;;;;;2.30;1.57;;;10.30;97.30;;;;;;4980291;28;20183;-61
2024/04/05 05:05:41;;;;;;;0.90;0.80;;;10.30;97.30;;;;;;4971568;28;20448;-61
2024/04/05 05:08:11;;;;;;;8.90;1.10;;;10.30;97.30;;;;;;4985192;28;20715;-61
2024/04/05 05:10:38;;;;;;;1.97;0.90;;;10.30;97.30;;;;;;4967720;28;20482;-61
2024/04/05 05:13:13;;;;;;;1.00;0.90;;;10.40;97.30;;;;;;4965071;28;20525;-61
2024/04/05 05:15:44;;;;;;;0.80;0.70;;;10.40;97.30;;;;;;4968102;28;20769;-62
2024/04/05 05:18:10;;;;;;;1.10;1.00;;;10.50;97.30;;;;;;4968160;28;20438;-62
2024/04/05 05:20:43;;;;;;;2.00;1.10;;;10.50;97.30;;;;;;4960372;28;20442;-61
2024/04/05 05:23:09;;;;;;;12.57;1.53;;;10.60;97.30;;;;;;4967749;28;20434;-61
2024/04/05 05:25:34;;;;;;;0.90;0.80;;;10.70;97.30;;;;;;4959579;28;20959;-61
2024/04/05 05:28:00;;;;;;;0.80;0.70;;;10.70;97.30;;;;;;4968141;28;20600;-61
2024/04/05 05:30:25;;;;;;;0.70;0.70;;;10.80;97.30;;;;;;4970114;28;20223;-62
2024/04/05 05:32:51;;;;;;;1.10;1.00;;;10.90;97.30;;;;;;4968044;28;20662;-61
2024/04/05 05:35:18;;;;;;;0.90;0.80;;;11.00;97.30;;;;;;4980521;28;20666;-62
2024/04/05 05:37:43;;;;;;;1.10;1.00;;;11.10;97.30;;;;;;4969173;28;20460;-61
2024/04/05 05:40:09;;;;;;;1.00;0.90;;;11.20;97.30;;;;;;4967714;28;20194;-61
2024/04/05 05:42:35;;;;;;;0.90;0.80;;;11.30;97.30;;;;;;4969049;28;20589;-62
2024/04/05 05:45:00;;;;;;;1.00;0.90;;;11.40;97.30;;;;;;4969415;28;20965;-62
2024/04/05 05:47:26;;;;;;;5.00;1.67;;;11.50;97.30;;;;;;4974741;28;20262;-62
2024/04/05 05:49:52;;;;;;;4.63;1.50;;;11.60;97.30;;;;;;4952899;28;20203;-62
2024/04/05 05:52:18;;;;;;;3.00;2.63;;;11.70;97.30;;;;;;4966936;28;20233;-61
2024/04/05 05:54:44;;;;;;;1.73;1.63;;;11.70;97.30;;;;;;4967197;28;20473;-61
2024/04/05 05:57:09;;;;;;;0.97;0.87;;;11.70;97.30;;;;;;4960758;28;20179;-61
2024/04/05 05:59:35;;;;;;;1.33;0.90;;;11.70;97.30;;;;;;4965834;28;20281;-62
2024/04/05 06:02:00;;;;;;;4.83;3.10;;;11.70;97.30;;;;;;4959230;28;20281;-61
2024/04/05 06:04:26;;;;;;;3.77;1.13;;;11.80;97.30;;;;;;4973137;28;20197;-61
2024/04/05 06:06:51;;;;;;;4.87;1.10;;;11.80;97.30;;;;;;4969739;28;20245;-62
2024/04/05 06:09:18;;;;;;;0.60;0.60;;;11.90;97.30;;;;;;4969890;28;20891;-62
2024/04/05 06:11:46;;;;;;;2.17;2.00;;;12.00;97.30;;;;;;4961656;28;20770;-61
2024/04/05 06:14:11;;;;;;;6.57;0.97;;;12.00;97.30;;;;;;4970431;28;20476;-62
2024/04/05 06:16:37;;;;;;;1.20;1.10;;;12.10;97.30;;;;;;4973329;28;20650;-62
2024/04/05 06:19:03;;;;;;;1.83;1.73;;;12.30;97.30;;;;;;4979944;28;20194;-62
2024/04/05 06:21:28;;;;;;;2.50;2.30;;;12.30;97.30;;;;;;4969862;28;20278;-62
2024/04/05 06:23:54;;;;;;;1.20;1.10;;;12.40;97.30;;;;;;4975723;28;20194;-62
2024/04/05 06:26:19;;;;;;;1.43;1.03;;;12.50;97.30;;;;;;4974493;28;20252;-62
2024/04/05 06:28:45;;;;;;;0.97;0.90;;;12.50;97.30;;;;;;4995129;28;20195;-62
2024/04/05 06:31:10;;;;;;;0.97;0.93;;;12.60;97.30;;;;;;4987362;28;20221;-62
2024/04/05 06:33:36;;;;;;;0.90;0.80;;;12.60;97.30;;;;;;4983892;28;20202;-62
2024/04/05 06:36:02;;;;;;;1.00;1.00;;;12.60;97.30;;;;;;4976873;28;20650;-62
2024/04/05 06:38:28;;;;;;;1.17;1.07;;;12.60;97.30;;;;;;4965534;28;20182;-62
2024/04/05 06:40:58;;;;;;;1.20;1.10;;;12.70;97.30;;;;;;4972323;28;20456;-62
2024/04/05 06:43:28;;;;;;;1.80;1.10;;;12.70;97.30;;;;;;4972658;28;20921;-62
2024/04/05 06:46:03;;;;;;;1.00;0.90;;;12.80;97.30;;;;;;4971119;28;20504;-61
2024/04/05 06:48:30;;;;;;;1.20;0.90;;;12.80;97.30;;;;;;4966983;28;20925;-62
2024/04/05 06:50:56;;;;;;;1.20;1.10;;;12.90;97.30;;;;;;4972322;28;20519;-62
2024/04/05 06:53:24;;;;;;;1.20;1.10;;;13.00;97.30;;;;;;4961422;28;20915;-62
2024/04/05 06:55:51;;;;;;;0.70;0.70;;;13.00;97.30;;;;;;4968150;28;20273;-62
2024/04/05 06:58:17;;;;;;;13.40;1.43;;;13.00;97.30;;;;;;4972402;28;20462;-62
2024/04/05 07:00:43;;;;;;;1.00;0.90;;;13.10;97.30;;;;;;4963778;28;20637;-61
2024/04/05 07:03:09;;;;;;;4.13;1.33;;;13.10;97.30;;;;;;4978076;28;20426;-61
2024/04/05 07:05:35;;;;;;;0.87;0.83;;;13.10;97.30;;;;;;4971737;28;20472;-62
2024/04/05 07:08:01;;;;;;;1.43;1.33;;;13.10;97.30;;;;;;4972204;28;20210;-61
2024/04/05 07:10:27;;;;;;;2.60;2.40;;;13.20;97.30;;;;;;4971058;28;20512;-62
2024/04/05 07:12:53;;;;;;;1.10;1.00;;;13.10;97.30;;;;;;4977451;28;20269;-62
2024/04/05 07:15:20;;;;;;;1.37;1.27;;;13.10;97.30;;;;;;4972368;28;20418;-62
2024/04/05 07:17:48;;;;;;;1.20;1.13;;;13.10;97.30;;;;;;4960539;28;20438;-62
2024/04/05 07:20:15;;;;;;;3.70;2.60;;;13.20;97.30;;;;;;4975052;28;20437;-62
2024/04/05 07:22:41;;;;;;;1.27;1.17;;;13.20;97.30;;;;;;4970544;28;20550;-62
2024/04/05 07:25:08;;;;;;;1.07;0.97;;;13.30;97.30;;;;;;4970865;28;20453;-62
2024/04/05 07:27:34;;;;;;;1.00;0.90;;;13.30;97.30;;;;;;4976265;28;20213;-62
2024/04/05 07:29:59;;;;;;;2.30;1.40;;;13.40;97.30;;;;;;4971703;28;20572;-62
2024/04/05 07:32:25;;;;;;;0.90;0.80;;;13.40;97.30;;;;;;4970425;28;21033;-62
2024/04/05 07:34:50;;;;;;;0.90;0.83;;;13.50;97.30;;;;;;4976965;28;20706;-62
2024/04/05 07:37:16;;;;;;;1.17;1.07;;;13.50;97.30;;;;;;4968304;28;20674;-62
2024/04/05 07:39:44;;;;;;;0.90;0.80;;;13.60;97.30;;;;;;4962411;28;20225;-62
2024/04/05 07:42:10;;;;;;;1.87;1.60;;;13.60;97.30;;;;;;4962063;28;20210;-62
2024/04/05 07:44:35;;;;;;;1.60;1.50;;;13.80;97.30;;;;;;4971671;28;20796;-62
2024/04/05 07:47:01;;;;;;;1.07;0.97;;;13.80;97.30;;;;;;4958348;28;20650;-62
2024/04/05 07:49:27;;;;;;;0.87;0.77;;;13.90;97.30;;;;;;4969820;28;20187;-62
2024/04/05 07:51:53;;;;;;;0.80;0.80;;;14.00;97.30;;;;;;4986148;28;20632;-62
2024/04/05 07:54:20;;;;;;;1.40;1.30;;;14.20;97.30;;;;;;4971520;28;21016;-62
2024/04/05 07:56:46;;;;;;;1.83;1.20;;;14.20;97.30;;;;;;4972349;28;20592;-62
2024/04/05 07:59:12;;;;;;;6.30;1.57;;;14.20;97.30;;;;;;4984456;28;20874;-62
2024/04/05 08:01:37;;;;;;;1.23;1.13;;;14.40;97.30;;;;;;4973322;28;20234;-63
2024/04/05 08:04:03;;;;;;;1.00;0.90;;;14.40;97.30;;;;;;4978153;28;20265;-62
2024/04/05 08:06:29;;;;;;;1.83;1.73;;;14.40;97.30;;;;;;4977883;28;20181;-62
2024/04/05 08:08:55;;;;;;;1.40;1.30;;;14.50;97.30;;;;;;4972563;28;20456;-62
2024/04/05 08:11:21;;;;;;;1.23;1.13;;;14.60;97.30;;;;;;4970761;28;20238;-62
2024/04/05 08:13:46;;;;;;;1.77;1.13;;;14.70;97.30;;;;;;4970641;28;20175;-62
2024/04/05 08:16:12;;;;;;;1.10;1.00;;;14.80;97.30;;;;;;4959798;28;20411;-62
2024/04/05 08:18:38;;;;;;;1.43;1.33;;;15.00;97.30;;;;;;4959706;28;20332;-62
2024/04/05 08:21:05;;;;;;;1.87;1.77;;;15.20;97.30;;;;;;4961054;28;20212;-62
2024/04/05 08:23:30;;;;;;;1.30;1.20;;;15.30;97.30;;;;;;4969514;28;20429;-62
2024/04/05 08:25:56;;;;;;;4.13;1.17;;;15.50;97.30;;;;;;4966412;28;20430;-62
2024/04/05 08:28:21;;;;;;;1.03;0.93;;;15.50;97.30;;;;;;4965632;28;20187;-61
2024/04/05 08:30:51;;;;;;;2.33;2.13;;;15.40;97.30;;;;;;4970654;28;20242;-62
2024/04/05 08:33:16;;;;;;;1.00;0.90;;;15.50;97.30;;;;;;4962683;28;20270;-62
2024/04/05 08:35:54;;;;;;;10.43;1.93;;;15.50;97.30;;;;;;4970569;28;20509;-62
2024/04/05 08:38:19;;;;;;;2.63;0.97;;;15.50;97.30;;;;;;4960567;28;20167;-62
2024/04/05 08:40:45;;;;;;;0.70;0.70;;;15.50;97.30;;;;;;4960360;28;20449;-62
2024/04/05 08:43:16;;;;;;;45.87;1.80;;;15.50;97.30;;;;;;4960833;28;20650;-62
2024/04/05 08:45:44;;;;;;;1.00;0.90;;;15.50;97.30;;;;;;4966909;28;20205;-62
2024/04/05 08:48:11;;;;;;;3.90;1.87;;;15.50;97.30;;;;;;4980503;28;20516;-62
2024/04/05 08:50:37;;;;;;;2.23;2.13;;;15.60;97.30;;;;;;4974562;28;20469;-61
2024/04/05 08:53:04;;;;;;;1.20;1.10;;;15.60;97.30;;;;;;4966307;28;20457;-62
2024/04/05 08:55:30;;;;;;;11.10;1.97;;;15.60;97.30;;;;;;4973497;28;20454;-62
2024/04/05 08:57:56;;;;;;;1.07;1.00;;;15.60;97.30;;;;;;4965772;28;20437;-61
2024/04/05 09:00:24;;;;;;;1.10;1.00;;;15.60;97.30;;;;;;4978145;28;20836;-62
2024/04/05 09:02:59;;;;;;;3.03;2.70;;;15.60;97.30;;;;;;4969104;28;20261;-61
2024/04/05 09:05:24;;;;;;;1.27;1.17;;;15.70;97.30;;;;;;4964121;28;20425;-62
2024/04/05 09:08:01;;;;;;;1.10;1.00;;;16.00;97.30;;;;;;4968553;28;20426;-61
2024/04/05 09:10:27;;;;;;;1.27;0.90;;;16.30;97.30;;;;;;4964361;28;20790;-61
2024/04/05 09:12:54;;;;;;;3.17;1.90;;;16.80;97.30;;;;;;4967942;28;20561;-61
2024/04/05 09:15:21;;;;;;;1.00;1.00;;;16.90;97.30;;;;;;4965689;28;20269;-61
2024/04/05 09:17:49;;;;;;;1.07;1.00;;;17.00;97.30;;;;;;4966323;28;20422;-62
2024/04/05 09:20:25;;;;;;;1.10;1.10;;;17.30;97.30;;;;;;4969770;28;20554;-62
2024/04/05 09:23:05;;;;;;;1.00;0.93;;;17.40;97.30;;;;;;4975106;28;20507;-62
2024/04/05 09:25:35;;;;;;;1.47;1.27;;;17.70;97.30;;;;;;4974006;28;20533;-61
2024/04/05 09:28:29;;;;;;;1.30;1.17;;;17.80;97.30;;;;;;4969381;28;20429;-62
2024/04/05 09:30:59;;;;;;;28.50;1.27;;;17.50;97.30;;;;;;4973641;28;20470;-61
2024/04/05 09:33:25;;;;;;;4.60;2.73;;;17.40;97.30;;;;;;4977183;28;20418;-62
2024/04/05 09:35:54;;;;;;;0.80;0.80;;;17.30;97.30;;;;;;4968059;28;20618;-62
2024/04/05 09:38:20;;;;;;;1.43;1.20;;;17.30;97.30;;;;;;4964259;28;20186;-62
2024/04/05 09:40:48;;;;;;;2.10;0.80;;;17.40;97.30;;;;;;4969645;28;20458;-62
2024/04/05 09:43:15;;;;;;;0.90;0.80;;;17.40;97.30;;;;;;4969937;28;20835;-62
2024/04/05 09:45:42;;;;;;;2.00;1.60;;;17.50;97.30;;;;;;4963825;28;20448;-62
2024/04/05 09:48:10;;;;;;;2.27;1.93;;;17.50;97.30;;;;;;4972629;28;20840;-62
2024/04/05 09:50:36;;;;;;;1.60;1.50;;;17.50;97.30;;;;;;4966768;28;20560;-62
2024/04/05 09:53:04;;;;;;;1.57;1.47;;;17.50;97.30;;;;;;4955640;28;20426;-61
2024/04/05 09:55:37;;;;;;;0.80;0.80;;;17.60;97.30;;;;;;4956812;28;20437;-63
2024/04/05 09:58:05;;;;;;;1.57;1.23;;;17.60;97.30;;;;;;4983294;28;20432;-62
2024/04/05 10:00:32;;;;;;;0.90;0.80;;;17.80;97.30;;;;;;4971432;28;20433;-63
2024/04/05 10:02:59;;;;;;;2.30;1.63;;;18.00;97.30;;;;;;4970388;28;20430;-62
2024/04/05 10:05:29;;;;;;;1.33;1.20;;;18.10;97.30;;;;;;4968157;28;20458;-62
2024/04/05 10:08:08;;;;;;;1.43;1.33;;;18.30;97.30;;;;;;4976235;28;20434;-61
2024/04/05 10:10:34;;;;;;;0.90;0.80;;;18.40;97.10;;;;;;4965799;28;20895;-63
2024/04/05 10:13:16;;;;;;;1.10;1.00;;;18.40;96.40;;;;;;4965694;28;20878;-62
2024/04/05 10:15:56;;;;;;;1.10;1.00;;;18.20;96.00;;;;;;4972082;28;20422;-62
2024/04/05 10:18:27;;;;;;;15.63;2.50;;;18.50;96.70;;;;;;4970101;28;20859;-61
2024/04/05 10:21:00;;;;;;;1.13;1.00;;;18.60;96.20;;;;;;4959849;28;20439;-62
2024/04/05 10:23:26;;;;;;;1.73;1.10;;;18.70;96.50;;;;;;4968833;28;20420;-62
2024/04/05 10:25:52;;;;;;;1.77;1.67;;;18.60;96.10;;;;;;4965585;28;20789;-62
2024/04/05 10:28:23;;;;;;;1.37;1.27;;;18.70;95.90;;;;;;4968081;28;20178;-64
2024/04/05 10:30:49;;;;;;;3.67;1.83;;;18.70;94.90;;;;;;4971039;28;20214;-62
2024/04/05 10:33:19;;;;;;;1.00;0.90;;;18.90;95.00;;;;;;4969218;28;20418;-62
2024/04/05 10:35:46;;;;;;;1.43;1.00;;;19.30;96.10;;;;;;4964907;28;20184;-62
2024/04/05 10:38:11;;;;;;;1.20;0.90;;;19.50;93.70;;;;;;4983491;28;20449;-62
2024/04/05 10:40:37;;;;;;;1.03;0.80;;;19.50;93.80;;;;;;4965690;28;20552;-63
2024/04/05 10:43:10;;;;;;;1.47;1.37;;;19.40;92.80;;;;;;4970012;28;20189;-62
2024/04/05 10:45:37;;;;;;;0.93;0.83;;;19.20;93.50;;;;;;4972902;28;20946;-62
2024/04/05 10:48:04;;;;;;;1.13;0.97;;;19.00;92.50;;;;;;4965629;28;20907;-62
2024/04/05 10:50:30;;;;;;;1.00;0.90;;;18.80;93.20;;;;;;4968832;28;20469;-63
2024/04/05 10:52:56;;;;;;;0.83;0.77;;;18.90;94.20;;;;;;4968674;28;20472;-62
2024/04/05 10:55:21;;;;;;;0.93;0.90;;;19.20;94.00;;;;;;4965825;28;20413;-62
2024/04/05 10:57:47;;;;;;;1.03;0.93;;;19.60;93.10;;;;;;4968808;28;20273;-62
2024/04/05 11:00:14;;;;;;;4.10;1.10;;;19.80;92.40;;;;;;4987219;28;20463;-63
2024/04/05 11:02:40;;;;;;;0.93;0.83;;;19.90;92.70;;;;;;4970711;28;20718;-62
2024/04/05 11:05:10;;;;;;;1.97;1.00;;;19.80;92.70;;;;;;4967053;28;20423;-63
2024/04/05 11:07:36;;;;;;;0.83;0.83;;;19.70;91.50;;;;;;4969894;28;20796;-62
2024/04/05 11:10:18;;;;;;;11.00;1.90;;;19.50;91.50;;;;;;4972337;28;20574;-63
2024/04/05 11:12:44;;;;;;;1.13;1.03;;;19.50;92.70;;;;;;4966370;28;21144;-63
2024/04/05 11:15:10;;;;;;;1.00;0.90;;;19.60;92.70;;;;;;4975472;28;20432;-63
2024/04/05 11:17:37;;;;;;;12.10;1.70;;;19.60;92.10;;;;;;4978093;28;20414;-62
2024/04/05 11:20:11;;;;;;;1.17;1.07;;;19.60;93.00;;;;;;4974742;28;20426;-63
2024/04/05 11:22:37;;;;;;;1.37;1.30;;;19.90;91.40;;;;;;4970565;28;20433;-63
2024/04/05 11:25:03;;;;;;;1.17;1.17;;;20.10;91.30;;;;;;4970396;28;20418;-62
2024/04/05 11:27:32;;;;;;;0.80;0.80;;;20.30;91.70;;;;;;4969953;28;20460;-62
2024/04/05 11:29:59;;;;;;;0.80;0.70;;;20.60;90.50;;;;;;4989320;28;20461;-61
2024/04/05 11:32:29;;;;;;;1.10;1.00;;;20.90;89.50;;;;;;4970231;28;20521;-61
2024/04/05 11:34:55;;;;;;;1.53;1.10;;;20.90;88.90;;;;;;4966635;28;20427;-61
2024/04/05 11:37:21;;;;;;;1.97;1.63;;;20.90;89.00;;;;;;4974646;28;20435;-61
2024/04/05 11:39:46;;;;;;;14.07;1.40;;;21.00;89.10;;;;;;4968628;28;20418;-61
2024/04/05 11:42:12;;;;;;;0.90;0.80;;;21.10;87.50;;;;;;4971338;28;20753;-61
2024/04/05 11:44:38;;;;;;;0.90;0.80;;;21.10;87.00;;;;;;4975479;28;20662;-61
2024/04/05 11:47:04;;;;;;;1.07;0.90;;;20.80;88.30;;;;;;4972384;28;20253;-61
2024/04/05 11:49:29;;;;;;;0.80;0.80;;;21.10;90.30;;;;;;4971534;28;20501;-61
2024/04/05 11:51:55;;;;;;;1.33;1.27;;;21.20;88.20;;;;;;4968789;28;20233;-61
2024/04/05 11:54:21;;;;;;;2.60;1.37;;;21.40;88.30;;;;;;4968144;28;20210;-61
2024/04/05 11:56:46;;;;;;;0.90;0.80;;;21.40;86.00;;;;;;4966512;28;21070;-61
2024/04/05 11:59:12;;;;;;;1.20;1.10;;;21.20;86.70;;;;;;4968605;28;20776;-61
2024/04/05 12:01:37;;;;;;;0.70;0.70;;;20.90;87.00;;;;;;4976222;28;20471;-61
2024/04/05 12:04:03;;;;;;;1.00;1.00;;;20.70;87.30;;;;;;4971147;28;20686;-61
2024/04/05 12:06:28;;;;;;;0.80;0.70;;;20.50;88.80;;;;;;4968938;28;20191;-61
2024/04/05 12:08:54;;;;;;;0.77;0.70;;;20.30;88.80;;;;;;4969267;28;20662;-61
2024/04/05 12:11:19;;;;;;;0.90;0.80;;;20.30;89.70;;;;;;4966457;28;20225;-61
2024/04/05 12:13:49;;;;;;;1.47;1.37;;;20.40;89.60;;;;;;4969641;28;20182;-61
2024/04/05 12:16:14;;;;;;;4.10;0.87;;;20.30;89.30;;;;;;4964824;28;20186;-61
2024/04/05 12:18:41;;;;;;;1.80;1.67;;;20.20;90.30;;;;;;4969774;28;20433;-61
2024/04/05 12:21:06;;;;;;;3.70;1.13;;;20.30;88.90;;;;;;4967370;28;20198;-60
2024/04/05 12:23:32;;;;;;;0.90;0.80;;;20.30;88.60;;;;;;4968453;28;20436;-62
2024/04/05 12:25:58;;;;;;;0.90;0.80;;;20.50;88.50;;;;;;4959763;28;20179;-61
2024/04/05 12:28:23;;;;;;;0.77;0.73;;;20.90;88.50;;;;;;4965417;28;20218;-61
2024/04/05 12:30:49;;;;;;;1.07;0.97;;;21.10;88.00;;;;;;4959035;28;20592;-61
2024/04/05 12:33:15;;;;;;;1.10;1.00;;;21.20;87.60;;;;;;4954963;28;20204;-61
2024/04/05 12:35:40;;;;;;;1.03;0.93;;;21.40;86.90;;;;;;4963577;28;20190;-61
2024/04/05 12:38:07;;;;;;;1.00;0.90;;;21.40;87.30;;;;;;4967505;28;20194;-61
2024/04/05 12:40:46;;;;;;;1.43;1.10;;;21.60;87.10;;;;;;4966350;28;20209;-61
2024/04/05 12:43:12;;;;;;;1.40;1.33;;;21.70;86.90;;;;;;4968627;28;20933;-62
2024/04/05 12:45:38;;;;;;;0.80;0.80;;;21.60;86.30;;;;;;4968317;28;20433;-62
2024/04/05 12:48:03;;;;;;;0.60;0.60;;;21.70;87.20;;;;;;4967039;28;20472;-61
2024/04/05 12:50:29;;;;;;;1.13;1.03;;;21.50;86.50;;;;;;4969341;28;20700;-61
2024/04/05 12:52:54;;;;;;;0.70;0.70;;;21.70;85.80;;;;;;4970606;28;20186;-61
2024/04/05 12:55:21;;;;;;;1.00;0.90;;;22.10;85.70;;;;;;4969122;28;20183;-62
2024/04/05 12:57:47;;;;;;;2.77;1.03;;;22.40;85.30;;;;;;4961099;28;20217;-61
2024/04/05 13:00:14;;;;;;;0.90;0.80;;;22.50;84.60;;;;;;4962561;28;20458;-61
2024/04/05 13:02:40;;;;;;;0.77;0.73;;;22.50;85.90;;;;;;4960531;28;20325;-61
2024/04/05 13:05:06;;;;;;;0.60;0.60;;;22.50;85.50;;;;;;4968655;28;20516;-62
2024/04/05 13:07:31;;;;;;;1.37;1.27;;;22.70;87.00;;;;;;4965477;28;20208;-61
2024/04/05 13:09:57;;;;;;;1.00;0.90;;;22.90;85.00;;;;;;4962301;28;20210;-61
2024/04/05 13:12:22;;;;;;;0.73;0.70;;;23.00;86.10;;;;;;4966292;28;20197;-61
2024/04/05 13:14:48;;;;;;;1.97;1.57;;;23.20;84.60;;;;;;4967084;28;20178;-64
2024/04/05 13:17:14;;;;;;;1.27;1.17;;;23.30;84.30;;;;;;4962782;28;20200;-64
2024/04/05 13:19:39;;;;;;;2.60;0.87;;;23.30;84.10;;;;;;4968035;28;20268;-63
2024/04/05 13:22:05;;;;;;;0.60;0.60;;;23.10;83.20;;;;;;4969736;28;20210;-64
2024/04/05 13:24:31;;;;;;;0.70;0.70;;;22.90;82.30;;;;;;4965696;28;20446;-64
2024/04/05 13:26:57;;;;;;;3.80;1.20;;;22.80;82.90;;;;;;4969116;28;20183;-63
2024/04/05 13:29:23;;;;;;;1.00;0.90;;;22.70;83.20;;;;;;4969697;28;20453;-64
2024/04/05 13:31:48;;;;;;;0.80;0.77;;;22.20;84.20;;;;;;4969413;28;21000;-64
2024/04/05 13:34:15;;;;;;;0.80;0.70;;;22.00;85.40;;;;;;4968350;28;20670;-64
2024/04/05 13:36:40;;;;;;;0.80;0.80;;;21.90;85.70;;;;;;4968036;28;20630;-64
2024/04/05 13:39:09;;;;;;;0.73;0.70;;;21.70;86.60;;;;;;4967136;28;20433;-64
2024/04/05 13:41:36;;;;;;;0.93;0.70;;;21.60;86.90;;;;;;4968294;28;20217;-64
2024/04/05 13:44:03;;;;;;;0.80;0.70;;;21.60;87.70;;;;;;4963311;28;20497;-65
2024/04/05 13:46:29;;;;;;;1.27;0.90;;;21.40;87.30;;;;;;4967023;28;20537;-64
2024/04/05 13:48:54;;;;;;;1.53;1.43;;;21.10;88.00;;;;;;4967917;28;20529;-62
2024/04/05 13:51:26;;;;;;;0.90;0.80;;;21.00;88.70;;;;;;4969076;28;20214;-61
2024/04/05 13:53:55;;;;;;;1.10;1.00;;;20.90;88.90;;;;;;4966244;28;20731;-60
2024/04/05 13:56:21;;;;;;;0.70;0.70;;;20.70;89.30;;;;;;4967765;28;20422;-62
2024/04/05 13:58:48;;;;;;;0.90;0.80;;;20.60;89.50;;;;;;4967990;28;20484;-61
2024/04/05 14:01:14;;;;;;;1.23;1.00;;;20.50;90.00;;;;;;4960043;28;20246;-62
2024/04/05 14:03:41;;;;;;;1.53;1.03;;;20.50;90.10;;;;;;4967705;28;20773;-61
2024/04/05 14:06:08;;;;;;;1.00;0.90;;;20.40;90.40;;;;;;4969742;28;20193;-62
2024/04/05 14:08:34;;;;;;;3.87;1.27;;;20.40;91.00;;;;;;4968020;28;20451;-61
2024/04/05 14:11:00;;;;;;;1.50;1.00;;;20.40;90.60;;;;;;4960133;28;20889;-61
2024/04/05 14:13:26;;;;;;;0.70;0.70;;;20.30;90.70;;;;;;4969136;28;20186;-62
2024/04/05 14:15:59;;;;;;;1.00;0.90;;;20.30;90.70;;;;;;4969303;28;20437;-61
2024/04/05 14:18:25;;;;;;;0.70;0.70;;;20.30;90.50;;;;;;4967908;28;20430;-61
2024/04/05 14:20:51;;;;;;;1.43;1.33;;;20.30;90.70;;;;;;4967760;28;20457;-61
2024/04/05 14:23:17;;;;;;;1.00;0.90;;;20.30;90.90;;;;;;4967854;28;20435;-61
2024/04/05 14:25:47;;;;;;;4.97;2.03;;;20.40;90.50;;;;;;4969345;28;20179;-62
2024/04/05 14:28:13;;;;;;;1.50;1.13;;;20.50;90.70;;;;;;4966494;28;20425;-62
2024/04/05 14:30:45;;;;;;;1.03;0.97;;;20.50;91.10;;;;;;4967509;28;20539;-62
2024/04/05 14:33:11;;;;;;;12.23;1.30;;;20.60;91.00;;;;;;4967531;28;20201;-62
2024/04/05 14:35:37;;;;;;;0.73;0.67;;;20.60;90.50;;;;;;4969012;28;20464;-62
2024/04/05 14:38:02;;;;;;;0.60;0.60;;;20.50;90.50;;;;;;4968909;28;20183;-61
2024/04/05 14:40:28;;;;;;;1.43;1.40;;;20.50;91.10;;;;;;4970539;28;20228;-62
2024/04/05 14:42:56;;;;;;;3.83;0.80;;;20.50;90.70;;;;;;4971403;28;20195;-62
2024/04/05 14:45:22;;;;;;;4.03;1.20;;;20.50;89.80;;;;;;4971409;28;20194;-62
2024/04/05 14:47:48;;;;;;;1.00;0.90;;;20.50;90.50;;;;;;4971528;28;20430;-62
2024/04/05 14:50:13;;;;;;;2.97;1.13;;;20.50;89.90;;;;;;4970139;28;20482;-62
2024/04/05 14:52:39;;;;;;;0.70;0.70;;;20.50;90.50;;;;;;4963802;28;20186;-61
2024/04/05 14:55:08;;;;;;;0.70;0.70;;;20.50;90.10;;;;;;4972644;28;20238;-61
2024/04/05 14:57:43;;;;;;;0.70;0.70;;;20.50;89.80;;;;;;4969068;28;20273;-62
2024/04/05 15:00:10;;;;;;;0.70;0.60;;;20.50;90.30;;;;;;4964916;28;20923;-62
2024/04/05 15:02:35;;;;;;;1.50;1.40;;;20.40;90.10;;;;;;4984414;23;20524;-84
2024/04/05 15:05:01;;;;;;;1.07;0.93;;;20.40;90.20;;;;;;4962499;28;20948;-84
2024/04/05 15:07:26;;;;;;;0.90;0.80;;;20.40;90.30;;;;;;4971441;28;20186;-86
2024/04/05 15:09:52;;;;;;;0.70;0.70;;;20.30;90.20;;;;;;4972792;28;20703;-85
2024/04/05 15:12:18;;;;;;;1.13;1.03;;;20.30;90.70;;;;;;4972421;28;20191;-85
2024/04/05 15:14:44;;;;;;;1.20;1.10;;;20.30;90.80;;;;;;4955007;28;20605;-85
2024/04/05 15:17:09;;;;;;;0.67;0.67;;;20.30;91.00;;;;;;4953437;29;20435;-85
2024/04/05 15:19:35;;;;;;;0.70;0.63;;;20.20;91.30;;;;;;4952565;28;20183;-85
2024/04/05 15:22:00;;;;;;;0.93;0.83;;;20.20;91.40;;;;;;4950317;29;20607;-84
2024/04/05 15:24:26;;;;;;;0.80;0.80;;;20.20;91.30;;;;;;4946200;29;20215;-85
2024/04/05 15:26:51;;;;;;;0.90;0.80;;;20.20;91.20;;;;;;4969964;28;20206;-85
2024/04/05 15:29:17;;;;;;;1.23;1.13;;;20.10;91.30;;;;;;4954028;29;20199;-86
2024/04/05 15:31:44;;;;;;;5.73;2.07;;;20.10;91.70;;;;;;4969221;28;20568;-86
2024/04/05 15:34:09;;;;;;;1.40;0.80;;;20.10;91.60;;;;;;4954144;28;20199;-86
2024/04/05 15:36:35;;;;;;;0.97;0.73;;;20.00;92.30;;;;;;4950886;29;20967;-86
2024/04/05 15:39:00;;;;;;;0.90;0.90;;;20.00;92.90;;;;;;4949747;29;20175;-86
2024/04/05 15:41:26;;;;;;;0.80;0.70;;;19.90;93.50;;;;;;4952252;28;20234;-85
2024/04/05 15:43:51;;;;;;;0.90;0.80;;;19.80;94.20;;;;;;4946855;29;20207;-86
2024/04/05 15:46:18;;;;;;;0.90;0.80;;;19.70;94.70;;;;;;4967534;28;20187;-84
2024/04/05 15:48:44;;;;;;;10.80;0.90;;;19.60;95.40;;;;;;4951957;28;20179;-84
2024/04/05 15:51:11;;;;;;;0.87;0.77;;;19.50;95.70;;;;;;4969702;28;20839;-85
2024/04/05 15:53:43;;;;;;;0.80;0.80;;;19.40;96.30;;;;;;4949655;28;20443;-85
2024/04/05 15:56:08;;;;;;;1.67;0.93;;;19.40;96.10;;;;;;4965655;28;20445;-85
2024/04/05 15:58:35;;;;;;;0.70;0.70;;;19.40;95.70;;;;;;4968161;28;20426;-85
2024/04/05 16:01:08;;;;;;;0.90;0.80;;;19.40;96.10;;;;;;4964089;29;20731;-87
2024/04/05 16:03:35;;;;;;;0.90;0.80;;;19.30;96.30;;;;;;4968474;28;20774;-86
2024/04/05 16:06:01;;;;;;;0.93;0.90;;;19.40;95.50;;;;;;4966294;29;20434;-86
2024/04/05 16:08:27;;;;;;;0.80;0.80;;;19.40;95.50;;;;;;4952667;29;20434;-85
2024/04/05 16:10:57;;;;;;;1.20;1.10;;;19.40;96.60;;;;;;4955260;28;20484;-86
2024/04/05 16:13:23;;;;;;;1.00;0.90;;;19.30;96.70;;;;;;4969561;28;20190;-86
2024/04/05 16:16:18;;;;;;;0.90;0.80;;;19.20;97.00;;;;;;4936811;29;20430;-86
2024/04/05 16:18:43;;;;;;;1.27;0.80;;;19.10;97.30;;;;;;4922517;29;20234;-87
2024/04/05 16:21:11;;;;;;;0.70;0.70;;;19.10;97.30;;;;;;4949706;29;20497;-86
2024/04/05 16:23:37;;;;;;;0.90;0.80;;;19.00;97.30;;;;;;4950981;28;20222;-86
2024/04/05 16:26:04;;;;;;;1.03;1.00;;;19.00;97.30;;;;;;4951392;29;20837;-85
2024/04/05 16:28:30;;;;;;;0.80;0.70;;;19.00;97.30;;;;;;4953054;29;20478;-86
2024/04/05 16:30:56;;;;;;;1.33;1.10;;;19.00;97.30;;;;;;4952104;29;20473;-86
2024/04/05 16:33:21;;;;;;;0.87;0.80;;;19.00;97.30;;;;;;4952040;28;20447;-86
2024/04/05 16:35:47;;;;;;;0.90;0.90;;;18.90;97.30;;;;;;4952038;28;20201;-86
2024/04/05 16:38:13;;;;;;;1.17;1.10;;;18.90;97.30;;;;;;4949024;28;20180;-86
2024/04/05 16:40:38;;;;;;;2.70;1.40;;;18.90;97.30;;;;;;4951765;28;20438;-87
2024/04/05 16:43:04;;;;;;;2.73;1.20;;;18.90;97.30;;;;;;4953221;28;20289;-86
2024/04/05 16:45:29;;;;;;;1.13;1.03;;;18.90;97.30;;;;;;4952739;28;20655;-86
2024/04/05 16:47:55;;;;;;;0.97;0.87;;;18.90;97.30;;;;;;4948213;28;20251;-85